Back to Top

Current Local METAR Station Weather Reports...

Local METAR Reports

Local METAR Reports

 

EGNJ - Humberside, United Kingdom
Distance from station: ESE 12mi, 20km
Updated: Mon, 18-Jan-2021 1:20pm GMT
Few Clouds
Few Clouds
 Wind from SW
Wind: SW 17 mph , 28 km/h
Temperature: 6°C
Wind Chill: 2°C
Dew Point: 4°C
Humidity: 87%
Barometer: 1016 hPa
Clouds: Few Clouds
Visibility: 6 miles , 10 km
Cloud details: Few Clouds 671 m
2021/01/18 13:20 EGNJ 181320Z 23015KT 9999 FEW022 06/04 Q1016
EGXV - Leconfield (aut), United Kingdom
Distance from station: NNE 16mi, 26km
Updated: Mon, 18-Jan-2021 12:50pm GMT
Partly Cloudy
Partly Cloudy
 Wind from WSW
Wind: WSW 14 mph , 22 km/h
Temperature: 6°C
Wind Chill: 2°C
Dew Point: 3°C
Humidity: 81%
Barometer: 1015 hPa
Clouds: Partly Cloudy
Visibility: 6 miles , 10 km
Cloud details: Partly Cloudy 792 m
2021/01/18 12:50 EGXV 181250Z AUTO 24012KT 9999 SCT026/// 06/03 Q1015
 
EGCN - Doncaster Sheffi, United Kingdom
Distance from station: SW 20mi, 32km
Updated: Mon, 18-Jan-2021 1:20pm GMT
Partly Cloudy
Partly Cloudy
 Wind from S
Wind: S 7 mph , 11 km/h
Temperature: 5°C
Wind Chill: 2°C
Dew Point: 3°C
Humidity: 87%
Barometer: 1017 hPa
Clouds: Partly Cloudy
Visibility: 6 miles , 10 km
Cloud details: Few Clouds 853 m
Partly Cloudy 1311 m
2021/01/18 13:20 EGCN 181320Z 18006KT 9999 FEW028 SCT043 05/03 Q1017
EGXP - Scampton Raf, United Kingdom
Distance from station: S 25mi, 39km
Updated: Mon, 18-Jan-2021 12:50pm GMT
Mostly Cloudy
Mostly Cloudy
 Wind from WSW
Wind: WSW 15 mph , 24 km/h
Temperature: 4°C
Wind Chill: -1°C
Dew Point: 3°C
Humidity: 93%
Barometer: 1017 hPa
Clouds: Mostly Cloudy
Visibility: 6 miles , 10 km
Cloud details: Few Clouds 1219 m
Mostly Cloudy 3658 m
2021/01/18 12:50 EGXP 181250Z 24013KT 9999 FEW040 BKN120 04/03 Q1017 RMK CC BLU
 
EGXW - Waddington Raf, United Kingdom
Distance from station: S 33mi, 53km
Updated: Mon, 18-Jan-2021 1:21pm GMT
Clear
Clear
 Wind from WSW
Wind: WSW 10 mph , 17 km/h
Temperature: 5°C
Wind Chill: 2°C
Dew Point: 2°C
Humidity: 81%
Barometer: 1017 hPa
Summary: Clear
Visibility: greater than 7 miles , 10 km
2021/01/18 13:21 EGXW 181321Z 24009KT CAVOK 05/02 Q1017 NOSIG RMK BLU BLU
EGXS - Donna Nook Raf, United Kingdom
Distance from station: ESE 33mi, 54km
Updated: Mon, 18-Jan-2021 12:50pm GMT
Clear
Clear
 Wind from SW
Wind: SW 16 mph , 26 km/h
Temperature: 5°C
Wind Chill: 1°C
Dew Point: 3°C
Humidity: 87%
Barometer: 1016 hPa
Summary: Clear
Visibility: greater than 7 miles , 10 km
2021/01/18 12:50 EGXS 181250Z 22014KT CAVOK 05/03 Q1016 BLU
 
EGXU - Linton-On-Ouse R, United Kingdom
Distance from station: NW 38mi, 61km
Updated: Mon, 18-Jan-2021 1:41pm GMT
unable to load EGXU data RC=
unable to load EGXU data RC=
 
EGXC - Coningsby Raf, United Kingdom
Distance from station: SSE 42mi, 68km
Updated: Mon, 18-Jan-2021 1:41pm GMT
unable to load EGXC data RC=
unable to load EGXC data RC=
 
 
EGYD - Cranwell Raf, United Kingdom
Distance from station: S 43mi, 69km
Updated: Mon, 18-Jan-2021 1:41pm GMT
unable to load EGYD data RC=
unable to load EGYD data RC=
 
EGNM - Leeds And Bradfo, United Kingdom
Distance from station: WNW 44mi, 71km
Updated: Mon, 18-Jan-2021 1:41pm GMT
unable to load EGNM data RC=
unable to load EGNM data RC=
 
 
EGXZ - Topcliffe Raf, United Kingdom
Distance from station: NW 49mi, 79km
Updated: Mon, 18-Jan-2021 1:41pm GMT
unable to load EGXZ data RC=
unable to load EGXZ data RC=
 
EGXE - Leeming Raf, United Kingdom
Distance from station: NW 57mi, 92km
Updated: Mon, 18-Jan-2021 1:41pm GMT
unable to load EGXE data RC=
unable to load EGXE data RC=
 
 
EGYH - Holbeach (aut), United Kingdom
Distance from station: SSE 63mi, 101km
Updated: Mon, 18-Jan-2021 1:41pm GMT
unable to load EGYH data RC=
unable to load EGYH data RC=
 
EGNX - East Midlands, United Kingdom
Distance from station: SSW 65mi, 104km
Updated: Mon, 18-Jan-2021 1:41pm GMT
unable to load EGNX data RC=
unable to load EGNX data RC=
 
 
EGNV - Tees-Side, United Kingdom
Distance from station: NNW 68mi, 109km
Updated: Mon, 18-Jan-2021 1:41pm GMT
unable to load EGNV data RC=
unable to load EGNV data RC=
 
EGCC - Manchester Intl, United Kingdom
Distance from station: WSW 71mi, 114km
Updated: Mon, 18-Jan-2021 1:41pm GMT
unable to load EGCC data RC=
unable to load EGCC data RC=
 

Metar display script from Saratoga-Weather.org

Data updates at regular intervals.